createdAt,value
2019-04-25T00:02:38.892Z,2.63
2019-04-25T00:05:11.236Z,1.27
2019-04-25T00:07:42.490Z,2.87
2019-04-25T00:10:13.780Z,2.50
2019-04-25T00:12:43.572Z,3.23
2019-04-25T00:15:13.353Z,1.60
2019-04-25T00:17:43.390Z,5.07
2019-04-25T00:20:12.855Z,2.73
2019-04-25T00:22:53.393Z,2.30
2019-04-25T00:25:45.144Z,3.47
2019-04-25T00:28:11.669Z,2.57
2019-04-25T00:30:40.916Z,3.87
2019-04-25T00:33:11.647Z,1.80
2019-04-25T00:35:42.301Z,2.50
2019-04-25T00:38:10.414Z,2.80
2019-04-25T00:40:39.218Z,3.57
2019-04-25T00:43:07.602Z,2.73
2019-04-25T00:45:36.226Z,2.70
2019-04-25T00:48:04.781Z,5.43
2019-04-25T00:50:33.406Z,3.80
2019-04-25T00:53:01.855Z,5.37
2019-04-25T00:55:31.474Z,5.40
2019-04-25T00:58:09.205Z,6.23
2019-04-25T01:00:59.221Z,6.57
2019-04-25T01:03:29.197Z,8.43
2019-04-25T01:05:57.717Z,7.70
2019-04-25T01:08:25.844Z,8.37
2019-04-25T01:10:54.286Z,10.20
2019-04-25T01:13:22.932Z,10.97
2019-04-25T01:15:52.884Z,10.17
2019-04-25T01:18:23.174Z,10.87
2019-04-25T01:20:53.623Z,9.30
2019-04-25T01:23:23.717Z,11.70
2019-04-25T01:25:53.721Z,11.37
2019-04-25T01:28:24.327Z,13.93
2019-04-25T01:30:54.776Z,10.00
2019-04-25T01:33:25.024Z,13.00
2019-04-25T01:36:03.459Z,10.50
2019-04-25T01:38:38.990Z,10.17
2019-04-25T01:41:34.228Z,8.80
2019-04-25T01:44:15.122Z,7.80
2019-04-25T01:46:44.269Z,8.13
2019-04-25T01:49:13.993Z,10.27
2019-04-25T01:51:43.715Z,8.10
2019-04-25T01:54:13.926Z,8.60
2019-04-25T01:56:44.162Z,8.27
2019-04-25T01:59:13.533Z,8.20
2019-04-25T02:01:44.034Z,8.03
2019-04-25T02:04:13.260Z,8.73
2019-04-25T02:06:43.402Z,7.60
2019-04-25T02:09:14.113Z,7.13
2019-04-25T02:12:01.960Z,8.30
2019-04-25T02:14:30.734Z,11.33
2019-04-25T02:16:59.145Z,7.87
2019-04-25T02:19:27.396Z,8.63
2019-04-25T02:21:56.515Z,8.53
2019-04-25T02:24:24.735Z,7.20
2019-04-25T02:26:54.814Z,7.57
2019-04-25T02:29:23.598Z,8.63
2019-04-25T02:31:54.671Z,9.70
2019-04-25T02:34:21.970Z,6.73
2019-04-25T02:36:50.235Z,7.83
2019-04-25T02:39:19.199Z,8.17
2019-04-25T02:41:47.431Z,7.40
2019-04-25T02:44:15.879Z,9.40
2019-04-25T02:47:19.080Z,9.27
2019-04-25T02:50:08.591Z,9.07
2019-04-25T02:52:38.391Z,9.87
2019-04-25T02:55:10.735Z,9.23
2019-04-25T02:57:38.254Z,10.80
2019-04-25T03:00:09.535Z,9.50
2019-04-25T03:02:38.294Z,8.87
2019-04-25T03:05:09.815Z,8.70
2019-04-25T03:07:37.308Z,8.57
2019-04-25T03:10:09.718Z,8.20
2019-04-25T03:12:38.085Z,9.97
2019-04-25T03:15:08.372Z,10.57
2019-04-25T03:17:36.704Z,10.43
2019-04-25T03:20:24.567Z,9.23
2019-04-25T03:22:54.709Z,10.83
2019-04-25T03:25:24.845Z,8.47
2019-04-25T03:27:54.116Z,10.53
2019-04-25T03:30:25.266Z,9.30
2019-04-25T03:32:55.950Z,8.97
2019-04-25T03:35:23.342Z,7.90
2019-04-25T03:38:09.996Z,9.13
2019-04-25T03:40:56.854Z,9.37
2019-04-25T03:43:39.124Z,8.00
2019-04-25T03:46:08.248Z,8.33
2019-04-25T03:48:37.174Z,8.83
2019-04-25T03:51:06.753Z,8.43
2019-04-25T03:53:35.763Z,8.77
2019-04-25T03:56:05.834Z,7.47
2019-04-25T03:58:34.875Z,9.37
2019-04-25T04:01:05.949Z,9.73
2019-04-25T04:03:33.977Z,6.83
2019-04-25T04:06:04.384Z,7.80
2019-04-25T04:08:34.337Z,9.10
2019-04-25T04:11:05.352Z,7.93
2019-04-25T04:13:34.282Z,7.90
2019-04-25T04:16:03.389Z,7.00
2019-04-25T04:18:44.209Z,7.57
2019-04-25T04:21:30.825Z,7.60
2019-04-25T04:24:25.838Z,7.70
2019-04-25T04:27:09.071Z,8.17
2019-04-25T04:29:38.116Z,6.30
2019-04-25T04:32:06.939Z,6.40
2019-04-25T04:34:35.218Z,5.50
2019-04-25T04:37:03.736Z,4.87
2019-04-25T04:39:33.697Z,7.23
2019-04-25T04:42:03.691Z,5.13
2019-04-25T04:44:34.277Z,5.37
2019-04-25T04:47:03.962Z,6.13
2019-04-25T04:49:34.128Z,4.77
2019-04-25T04:52:06.217Z,4.57
2019-04-25T04:54:34.295Z,5.10
2019-04-25T04:57:16.773Z,6.57
2019-04-25T04:59:33.810Z,5.33
2019-04-25T05:02:24.196Z,3.80
2019-04-25T05:05:30.702Z,5.63
2019-04-25T05:08:14.996Z,4.03
2019-04-25T05:10:43.299Z,3.60
2019-04-25T05:13:12.136Z,4.13
2019-04-25T05:15:40.794Z,3.00
2019-04-25T05:18:12.196Z,3.40
2019-04-25T05:20:40.603Z,2.93
2019-04-25T05:23:09.038Z,4.67
2019-04-25T05:25:37.472Z,3.03
2019-04-25T05:28:06.460Z,4.80
2019-04-25T05:30:43.764Z,2.30
2019-04-25T05:33:14.452Z,3.13
2019-04-25T05:35:42.107Z,4.40
2019-04-25T05:38:10.799Z,2.33
2019-04-25T05:40:56.021Z,2.07
2019-04-25T05:43:25.804Z,1.53
2019-04-25T05:45:54.175Z,1.83
2019-04-25T05:48:25.058Z,1.40
2019-04-25T05:50:53.792Z,7.07
2019-04-25T05:53:23.859Z,2.70
2019-04-25T05:55:53.955Z,3.90
2019-04-25T05:58:24.079Z,2.33
2019-04-25T06:00:54.368Z,2.93
2019-04-25T06:03:24.847Z,3.37
2019-04-25T06:05:53.344Z,2.30
2019-04-25T06:08:25.543Z,3.23
2019-04-25T06:11:13.807Z,7.63
2019-04-25T06:13:48.433Z,2.53
2019-04-25T06:16:29.764Z,3.67
2019-04-25T06:19:37.172Z,3.63
2019-04-25T06:22:07.661Z,2.00
2019-04-25T06:24:59.277Z,2.50
2019-04-25T06:27:56.468Z,2.70
2019-04-25T06:30:25.997Z,2.33
2019-04-25T06:32:55.343Z,2.47
2019-04-25T06:35:25.138Z,3.40
2019-04-25T06:37:53.991Z,3.60
2019-04-25T06:40:24.183Z,2.70
2019-04-25T06:42:53.614Z,3.17
2019-04-25T06:45:44.162Z,3.23
2019-04-25T06:48:22.557Z,2.03
2019-04-25T06:50:51.273Z,1.47
2019-04-25T06:53:19.421Z,3.63
2019-04-25T06:55:47.924Z,2.30
2019-04-25T06:58:16.822Z,2.00
2019-04-25T07:00:57.159Z,1.50
2019-04-25T07:03:15.645Z,1.93
2019-04-25T07:05:45.042Z,2.43
2019-04-25T07:08:13.585Z,1.40
2019-04-25T07:10:42.234Z,2.00
2019-04-25T07:13:10.480Z,2.97
2019-04-25T07:15:38.896Z,3.40
2019-04-25T07:18:07.201Z,4.10
2019-04-25T07:20:36.730Z,1.67
2019-04-25T07:23:05.327Z,4.07
2019-04-25T07:25:36.824Z,3.17
2019-04-25T07:28:30.205Z,2.13
2019-04-25T07:33:50.767Z,2.70
2019-04-25T07:36:19.096Z,2.33
2019-04-25T07:38:47.467Z,2.80
2019-04-25T07:41:16.378Z,2.30
2019-04-25T07:43:44.672Z,3.23
2019-04-25T07:46:14.260Z,5.53
2019-04-25T07:48:43.837Z,1.30
2019-04-25T07:51:16.192Z,3.87
2019-04-25T07:53:43.642Z,1.73
2019-04-25T07:56:14.238Z,1.70
2019-04-25T07:58:50.493Z,1.73
2019-04-25T08:01:14.779Z,4.87
2019-04-25T08:03:49.257Z,2.53
2019-04-25T08:06:18.373Z,3.07
2019-04-25T08:08:46.618Z,1.93
2019-04-25T08:11:15.119Z,4.20
2019-04-25T08:13:49.130Z,3.73
2019-04-25T08:16:18.651Z,2.10
2019-04-25T08:18:47.747Z,4.00
2019-04-25T08:21:16.062Z,2.73
2019-04-25T08:23:44.351Z,4.17
2019-04-25T08:26:14.163Z,2.60
2019-04-25T08:28:52.015Z,2.13
2019-04-25T08:31:13.572Z,1.63
2019-04-25T08:33:43.775Z,2.20
2019-04-25T08:36:13.703Z,1.77
2019-04-25T08:38:44.416Z,4.07
2019-04-25T08:41:13.901Z,1.93
2019-04-25T08:43:45.026Z,2.57
2019-04-25T08:46:14.005Z,3.20
2019-04-25T08:49:02.196Z,1.33
2019-04-25T08:51:34.807Z,1.17
2019-04-25T08:54:09.618Z,2.80
2019-04-25T08:56:37.955Z,1.50
2019-04-25T08:59:34.078Z,1.30
2019-04-25T09:02:16.931Z,1.57
2019-04-25T09:05:04.129Z,2.27
2019-04-25T09:07:35.433Z,3.20
2019-04-25T09:10:03.627Z,2.93
2019-04-25T09:12:32.816Z,1.97
2019-04-25T09:15:04.150Z,2.70
2019-04-25T09:17:33.177Z,5.13
2019-04-25T09:20:04.020Z,2.67
2019-04-25T09:22:35.029Z,2.70
2019-04-25T09:25:03.825Z,3.03
2019-04-25T09:27:34.315Z,2.60
2019-04-25T09:30:03.924Z,2.73
2019-04-25T09:32:33.823Z,2.80
2019-04-25T09:35:03.820Z,1.67
2019-04-25T09:37:33.619Z,3.13
2019-04-25T09:40:13.995Z,3.40
2019-04-25T09:42:44.771Z,4.33
2019-04-25T09:45:26.987Z,2.47
2019-04-25T09:47:56.821Z,2.53
2019-04-25T09:50:34.306Z,3.53
2019-04-25T09:53:02.469Z,2.13
2019-04-25T09:55:49.019Z,3.07
2019-04-25T09:58:23.866Z,3.37
2019-04-25T10:00:56.601Z,1.83
2019-04-25T10:03:24.736Z,2.67
2019-04-25T10:05:52.983Z,4.00
2019-04-25T10:08:21.239Z,2.97
2019-04-25T10:10:49.406Z,1.27
2019-04-25T10:13:17.568Z,2.77
2019-04-25T10:16:03.147Z,2.57
2019-04-25T10:18:33.533Z,6.67
2019-04-25T10:21:04.273Z,2.17
2019-04-25T10:23:34.225Z,2.57
2019-04-25T10:26:03.864Z,2.73
2019-04-25T10:28:33.642Z,3.77
2019-04-25T10:31:03.576Z,2.90
2019-04-25T10:33:33.745Z,2.63
2019-04-25T10:36:01.912Z,2.20
2019-04-25T10:38:30.379Z,4.23
2019-04-25T10:40:58.745Z,2.20
2019-04-25T10:43:27.400Z,1.00
2019-04-25T10:45:55.812Z,2.67
2019-04-25T10:48:24.249Z,1.73
2019-04-25T10:50:55.466Z,1.20
2019-04-25T10:53:23.255Z,0.73
2019-04-25T10:55:53.174Z,3.70
2019-04-25T10:58:21.826Z,1.63
2019-04-25T11:00:53.027Z,1.43
2019-04-25T11:03:40.731Z,1.13
2019-04-25T11:06:14.138Z,2.10
2019-04-25T11:08:42.366Z,1.60
2019-04-25T11:11:10.886Z,4.27
2019-04-25T11:13:39.590Z,3.23
2019-04-25T11:16:08.085Z,3.27
2019-04-25T11:18:36.674Z,1.97
2019-04-25T11:21:06.073Z,2.90
2019-04-25T11:23:34.426Z,1.93
2019-04-25T11:26:03.857Z,1.70
2019-04-25T11:28:33.639Z,5.80
2019-04-25T11:31:05.183Z,1.33
2019-04-25T11:33:34.363Z,1.67
2019-04-25T11:36:04.201Z,5.43
2019-04-25T11:38:41.229Z,1.90
2019-04-25T11:41:14.124Z,4.77
2019-04-25T11:43:45.369Z,1.70
2019-04-25T11:46:14.095Z,1.47
2019-04-25T11:48:44.225Z,1.00
2019-04-25T11:51:13.829Z,1.47
2019-04-25T11:53:45.056Z,1.33
2019-04-25T11:56:13.769Z,2.03
2019-04-25T11:58:44.733Z,2.60
2019-04-25T12:01:13.822Z,1.80
2019-04-25T12:03:42.163Z,3.03
2019-04-25T12:06:11.318Z,5.17
2019-04-25T12:08:39.718Z,1.93
2019-04-25T12:11:08.359Z,1.80
2019-04-25T12:13:36.750Z,2.93
2019-04-25T12:16:05.271Z,1.13
2019-04-25T12:18:35.339Z,2.47
2019-04-25T12:21:04.255Z,1.93
2019-04-25T12:23:33.967Z,1.80
2019-04-25T12:26:03.778Z,2.10
2019-04-25T12:28:33.852Z,3.03
2019-04-25T12:31:02.092Z,1.50
2019-04-25T12:33:30.545Z,1.27
2019-04-25T12:35:58.824Z,5.13
2019-04-25T12:38:27.186Z,3.77
2019-04-25T12:40:55.751Z,3.33
2019-04-25T12:43:25.792Z,2.03
2019-04-25T12:46:03.595Z,2.27
2019-04-25T12:48:31.763Z,3.50
2019-04-25T12:51:00.325Z,1.37
2019-04-25T12:53:28.609Z,4.57
2019-04-25T12:55:56.995Z,3.90
2019-04-25T12:58:25.253Z,0.37
2019-04-25T13:00:58.315Z,0.57
2019-04-25T13:03:25.265Z,1.13
2019-04-25T13:05:54.096Z,1.90
2019-04-25T13:08:24.135Z,1.17
2019-04-25T13:10:54.256Z,1.83
2019-04-25T13:13:24.162Z,1.20
2019-04-25T13:15:53.301Z,3.10
2019-04-25T13:18:21.639Z,2.37
2019-04-25T13:20:49.812Z,1.73
2019-04-25T13:23:18.185Z,6.87
2019-04-25T13:25:46.554Z,2.93
2019-04-25T13:28:25.791Z,3.60
2019-04-25T13:31:21.274Z,4.20
2019-04-25T13:34:01.737Z,0.50
2019-04-25T13:36:30.162Z,1.97
2019-04-25T13:38:58.625Z,0.50
2019-04-25T13:41:26.912Z,1.57
2019-04-25T13:43:55.353Z,2.17
2019-04-25T13:46:26.257Z,1.60
2019-04-25T13:48:54.650Z,1.17
2019-04-25T13:51:24.651Z,4.30
2019-04-25T13:53:54.558Z,3.60
2019-04-25T13:56:25.064Z,1.30
2019-04-25T13:58:54.219Z,4.73
2019-04-25T14:01:24.705Z,2.23
2019-04-25T14:03:54.271Z,1.80
2019-04-25T14:06:22.632Z,0.90
2019-04-25T14:08:50.918Z,1.97
2019-04-25T14:11:20.707Z,2.87
2019-04-25T14:13:51.018Z,0.93
2019-04-25T14:16:43.367Z,1.30
2019-04-25T14:19:34.826Z,0.67
2019-04-25T14:22:04.424Z,0.67
2019-04-25T14:24:34.541Z,2.43
2019-04-25T14:27:03.703Z,2.10
2019-04-25T14:29:32.637Z,2.33
2019-04-25T14:32:01.103Z,1.23
2019-04-25T14:34:29.896Z,2.93
2019-04-25T14:36:58.417Z,0.70
2019-04-25T14:39:27.441Z,2.40
2019-04-25T14:41:55.860Z,1.07
2019-04-25T14:44:24.106Z,0.50
2019-04-25T14:46:52.275Z,3.30
2019-04-25T14:49:20.419Z,1.53
2019-04-25T14:51:48.739Z,0.80
2019-04-25T14:54:23.778Z,1.10
2019-04-25T14:57:08.220Z,1.03
2019-04-25T14:59:36.988Z,2.10
2019-04-25T15:02:05.883Z,2.17
2019-04-25T15:04:35.293Z,2.30
2019-04-25T15:07:03.813Z,0.90
2019-04-25T15:09:32.293Z,4.00
2019-04-25T15:12:00.632Z,0.43
2019-04-25T15:14:29.285Z,3.57
2019-04-25T15:16:57.592Z,3.27
2019-04-25T15:19:25.768Z,4.33
2019-04-25T15:21:53.940Z,1.43
2019-04-25T15:24:22.978Z,2.57
2019-04-25T15:26:52.206Z,1.57
2019-04-25T15:29:20.543Z,5.37
2019-04-25T15:31:55.841Z,1.57
2019-04-25T15:34:19.113Z,1.10
2019-04-25T15:36:56.739Z,0.93
2019-04-25T15:39:59.664Z,1.20
2019-04-25T15:42:49.773Z,2.97
2019-04-25T15:45:37.870Z,3.13
2019-04-25T15:48:06.898Z,0.97
2019-04-25T15:50:35.357Z,2.20
2019-04-25T15:53:03.530Z,1.37
2019-04-25T15:55:32.074Z,1.57
2019-04-25T15:58:00.317Z,2.23
2019-04-25T16:00:35.001Z,2.10
2019-04-25T16:03:03.818Z,5.20
2019-04-25T16:05:32.342Z,2.13
2019-04-25T16:08:00.782Z,4.67
2019-04-25T16:10:29.904Z,3.43
2019-04-25T16:12:58.172Z,3.00
2019-04-25T16:15:27.759Z,4.13
2019-04-25T16:17:56.167Z,1.63
2019-04-25T16:20:24.513Z,3.80
2019-04-25T16:22:52.700Z,1.60
2019-04-25T16:25:20.946Z,3.00
2019-04-25T16:27:50.572Z,2.50
2019-04-25T16:30:21.621Z,2.27
2019-04-25T16:32:49.761Z,1.43
2019-04-25T16:35:18.028Z,2.97
2019-04-25T16:37:46.171Z,4.57
2019-04-25T16:40:14.627Z,1.97
2019-04-25T16:42:42.757Z,2.80
2019-04-25T16:45:11.111Z,1.03
2019-04-25T16:47:40.005Z,7.23
2019-04-25T16:50:08.936Z,7.03
2019-04-25T16:52:37.996Z,0.87
2019-04-25T16:55:08.277Z,3.73
2019-04-25T16:57:37.047Z,2.03
2019-04-25T17:00:08.903Z,5.43
2019-04-25T17:02:39.957Z,5.80
2019-04-25T17:05:09.185Z,1.90
2019-04-25T17:07:38.446Z,2.20
2019-04-25T17:10:07.361Z,0.90
2019-04-25T17:12:36.467Z,5.90
2019-04-25T17:15:16.383Z,1.40
2019-04-25T17:17:58.106Z,1.57
2019-04-25T17:20:29.882Z,1.57
2019-04-25T17:22:59.126Z,1.47
2019-04-25T17:25:28.300Z,3.60
2019-04-25T17:27:57.029Z,3.13
2019-04-25T17:30:27.345Z,5.27
2019-04-25T17:33:09.669Z,7.87
2019-04-25T17:35:45.111Z,4.50
2019-04-25T17:38:20.325Z,6.27
2019-04-25T17:40:48.498Z,3.33
2019-04-25T17:43:16.654Z,2.73
2019-04-25T17:45:44.887Z,1.50
2019-04-25T17:48:14.008Z,2.43
2019-04-25T17:50:43.954Z,2.50
2019-04-25T17:53:12.250Z,6.73
2019-04-25T17:55:41.587Z,4.00
2019-04-25T17:58:09.902Z,2.30
2019-04-25T18:00:40.164Z,5.93
2019-04-25T18:03:10.784Z,7.57
2019-04-25T18:05:39.630Z,5.37
2019-04-25T18:08:07.868Z,1.67
2019-04-25T18:10:37.615Z,4.80
2019-04-25T18:13:09.196Z,1.40
2019-04-25T18:15:46.424Z,3.63
2019-04-25T18:18:45.659Z,2.37
2019-04-25T18:21:14.255Z,5.03
2019-04-25T18:24:00.697Z,2.00
2019-04-25T18:26:43.622Z,3.37
2019-04-25T18:29:13.117Z,2.70
2019-04-25T18:31:41.690Z,9.10
2019-04-25T18:34:15.562Z,4.53
2019-04-25T18:37:03.721Z,2.10
2019-04-25T18:39:39.870Z,3.03
2019-04-25T18:42:42.876Z,4.53
2019-04-25T18:45:19.740Z,1.53
2019-04-25T18:47:47.950Z,4.53
2019-04-25T18:50:18.438Z,3.53
2019-04-25T18:52:54.100Z,2.30
2019-04-25T18:55:28.869Z,1.33
2019-04-25T18:58:09.911Z,2.67
2019-04-25T19:00:52.382Z,3.00
2019-04-25T19:03:39.402Z,1.03
2019-04-25T19:06:11.309Z,1.63
2019-04-25T19:08:39.690Z,3.60
2019-04-25T19:11:09.187Z,3.13
2019-04-25T19:13:38.798Z,7.30
2019-04-25T19:16:08.194Z,5.17
2019-04-25T19:18:36.520Z,1.73
2019-04-25T19:21:05.446Z,2.00
2019-04-25T19:23:33.911Z,2.50
2019-04-25T19:26:02.148Z,2.50
2019-04-25T19:28:30.628Z,2.50
2019-04-25T19:30:58.993Z,3.97
2019-04-25T19:33:35.672Z,1.43
2019-04-25T19:35:57.431Z,3.70
2019-04-25T19:38:25.733Z,3.03
2019-04-25T19:41:12.513Z,1.80
2019-04-25T19:43:56.303Z,2.10
2019-04-25T19:46:37.539Z,1.77
2019-04-25T19:49:06.849Z,2.80
2019-04-25T19:51:35.583Z,3.33
2019-04-25T19:54:04.564Z,2.47
2019-04-25T19:56:33.111Z,2.07
2019-04-25T19:59:03.411Z,0.90
2019-04-25T20:01:32.752Z,2.47
2019-04-25T20:04:13.442Z,5.10
2019-04-25T20:07:02.217Z,3.23
2019-04-25T20:09:49.767Z,2.67
2019-04-25T20:12:19.092Z,4.73
2019-04-25T20:14:47.688Z,1.50
2019-04-25T20:17:15.867Z,3.93
2019-04-25T20:19:45.839Z,3.60
2019-04-25T20:22:15.752Z,2.13
2019-04-25T20:24:45.329Z,1.00
2019-04-25T20:27:14.247Z,3.57
2019-04-25T20:29:44.117Z,4.67
2019-04-25T20:32:13.324Z,2.67
2019-04-25T20:34:41.811Z,1.77
2019-04-25T20:37:10.021Z,3.30
2019-04-25T20:39:38.314Z,4.00
2019-04-25T20:42:06.800Z,0.50
2019-04-25T20:44:36.531Z,2.43
2019-04-25T20:47:05.453Z,2.23
2019-04-25T20:49:33.960Z,2.90
2019-04-25T20:52:02.158Z,3.30
2019-04-25T20:54:30.574Z,2.20
2019-04-25T20:56:59.307Z,2.87
2019-04-25T20:59:27.702Z,2.30
2019-04-25T21:01:56.238Z,1.70
2019-04-25T21:04:40.526Z,5.30
2019-04-25T21:07:09.231Z,3.13
2019-04-25T21:09:38.117Z,0.43
2019-04-25T21:12:07.027Z,3.77
2019-04-25T21:14:53.289Z,2.83
2019-04-25T21:17:43.832Z,2.47
2019-04-25T21:20:12.080Z,2.97
2019-04-25T21:22:40.694Z,2.10
2019-04-25T21:25:08.956Z,2.50
2019-04-25T21:27:37.513Z,2.37
2019-04-25T21:30:07.223Z,3.33
2019-04-25T21:32:55.488Z,1.30
2019-04-25T21:35:24.521Z,2.13
2019-04-25T21:37:53.564Z,0.93
2019-04-25T21:40:30.947Z,1.03
2019-04-25T21:43:04.437Z,2.10
2019-04-25T21:45:33.306Z,7.50
2019-04-25T21:48:01.676Z,2.40
2019-04-25T21:50:30.354Z,1.53
2019-04-25T21:52:59.150Z,2.20
2019-04-25T21:55:27.855Z,3.80
2019-04-25T21:57:56.697Z,2.27
2019-04-25T22:00:44.359Z,0.90
2019-04-25T22:03:15.814Z,8.70
2019-04-25T22:05:44.156Z,1.27
2019-04-25T22:08:12.336Z,1.07
2019-04-25T22:10:40.761Z,4.20
2019-04-25T22:13:16.371Z,3.77
2019-04-25T22:15:39.950Z,1.93
2019-04-25T22:18:08.648Z,3.23
2019-04-25T22:20:36.859Z,5.70
2019-04-25T22:23:05.560Z,2.73
2019-04-25T22:25:35.045Z,5.97
2019-04-25T22:28:03.831Z,7.03
2019-04-25T22:30:32.813Z,4.90
2019-04-25T22:33:21.530Z,5.70
2019-04-25T22:35:59.341Z,4.53
2019-04-25T22:38:28.601Z,5.17
2019-04-25T22:40:56.998Z,3.57
2019-04-25T22:43:25.571Z,3.13
2019-04-25T22:45:54.279Z,2.27
2019-04-25T22:48:45.192Z,4.30
2019-04-25T22:51:13.349Z,1.80
2019-04-25T22:53:41.785Z,3.43
2019-04-25T22:56:10.020Z,3.10
2019-04-25T22:58:38.673Z,3.13
2019-04-25T23:01:13.475Z,2.10
2019-04-25T23:03:44.047Z,3.43
2019-04-25T23:06:12.783Z,1.13
2019-04-25T23:08:40.977Z,4.73
2019-04-25T23:11:09.121Z,3.73
2019-04-25T23:13:37.358Z,3.43
2019-04-25T23:16:06.957Z,1.80
2019-04-25T23:18:35.528Z,6.17
2019-04-25T23:21:04.011Z,0.87
2019-04-25T23:23:34.279Z,3.07
2019-04-25T23:26:20.669Z,2.80
2019-04-25T23:28:50.668Z,3.23
2019-04-25T23:31:23.672Z,2.30
2019-04-25T23:33:52.239Z,1.70
2019-04-25T23:36:20.922Z,3.43
2019-04-25T23:38:49.145Z,2.07
2019-04-25T23:41:17.820Z,4.63
2019-04-25T23:43:46.166Z,2.53
2019-04-25T23:46:14.440Z,1.90
2019-04-25T23:48:42.925Z,4.33
2019-04-25T23:51:11.538Z,2.33
2019-04-25T23:53:40.037Z,1.10
2019-04-25T23:56:08.930Z,2.10
2019-04-25T23:58:37.716Z,3.10
